createdAt,value
2022-09-10T00:00:27.302Z,100783.91
2022-09-10T00:02:55.012Z,100780.59
2022-09-10T00:05:22.561Z,100782.59
2022-09-10T00:07:50.076Z,100787.38
2022-09-10T00:10:18.615Z,100794.97
2022-09-10T00:12:48.151Z,100793.00
2022-09-10T00:15:15.644Z,100787.72
2022-09-10T00:17:44.571Z,100789.69
2022-09-10T00:20:12.162Z,100792.50
2022-09-10T00:22:39.659Z,100787.22
2022-09-10T00:25:08.562Z,100795.63
2022-09-10T00:27:36.549Z,100795.63
2022-09-10T00:30:04.679Z,100795.13
2022-09-10T00:32:32.747Z,100805.53
2022-09-10T00:35:01.883Z,100805.53
2022-09-10T00:37:29.347Z,100809.50
2022-09-10T00:39:56.907Z,100810.66
2022-09-10T00:42:25.618Z,100812.66
2022-09-10T00:44:58.194Z,100813.47
2022-09-10T00:47:27.917Z,100813.78
2022-09-10T00:49:58.393Z,100815.78
2022-09-10T00:52:27.641Z,100812.97
2022-09-10T00:54:55.257Z,100813.78
2022-09-10T00:57:24.043Z,100809.34
2022-09-10T00:59:54.209Z,100806.53
2022-09-10T01:02:21.961Z,100805.38
2022-09-10T01:04:51.367Z,100804.53
2022-09-10T01:07:19.905Z,100803.38
2022-09-10T01:09:49.038Z,100811.81
2022-09-10T01:12:23.980Z,100812.97
2022-09-10T01:15:05.326Z,100811.00
2022-09-10T01:17:38.330Z,100811.81
2022-09-10T01:20:18.400Z,100806.19
2022-09-10T01:22:59.664Z,100809.00
2022-09-10T01:25:36.141Z,100810.66
2022-09-10T01:28:08.144Z,100811.81
2022-09-10T01:30:37.128Z,100806.19
2022-09-10T01:33:07.961Z,100810.16
2022-09-10T01:35:43.084Z,100808.19
2022-09-10T01:38:18.112Z,100804.88
2022-09-10T01:40:46.427Z,100802.88
2022-09-10T01:43:19.353Z,100804.41
2022-09-10T01:45:57.327Z,100806.84
2022-09-10T01:48:39.913Z,100808.03
2022-09-10T01:51:10.682Z,100808.03
2022-09-10T01:53:48.232Z,100813.66
2022-09-10T01:56:25.340Z,100812.00
2022-09-10T01:58:58.023Z,100809.19
2022-09-10T02:01:37.578Z,100810.34
2022-09-10T02:04:08.058Z,100805.88
2022-09-10T02:06:37.383Z,100814.31
2022-09-10T02:09:06.654Z,100810.66
2022-09-10T02:11:44.172Z,100804.56
2022-09-10T02:14:14.113Z,100815.78
2022-09-10T02:17:10.822Z,100813.31
2022-09-10T02:19:38.985Z,100813.63
2022-09-10T02:22:06.764Z,100819.25
2022-09-10T02:24:34.372Z,100815.59
2022-09-10T02:27:01.903Z,100822.72
2022-09-10T02:29:31.269Z,100815.44
2022-09-10T02:31:59.776Z,100817.41
2022-09-10T02:34:27.304Z,100818.56
2022-09-10T02:36:57.412Z,100820.53
2022-09-10T02:39:25.902Z,100820.88
2022-09-10T02:41:53.850Z,100824.84
2022-09-10T02:44:23.468Z,100823.19
2022-09-10T02:46:52.336Z,100828.31
2022-09-10T02:49:20.925Z,100827.81
2022-09-10T02:51:50.453Z,100831.78
2022-09-10T02:54:19.819Z,100826.50
2022-09-10T02:56:49.852Z,100831.59
2022-09-10T02:59:17.952Z,100829.94
2022-09-10T03:01:45.626Z,100829.13
2022-09-10T03:04:16.075Z,100833.06
2022-09-10T03:06:43.798Z,100832.25
2022-09-10T03:09:11.351Z,100834.56
2022-09-10T03:11:40.069Z,100830.91
2022-09-10T03:14:08.345Z,100836.53
2022-09-10T03:16:36.178Z,100837.69
2022-09-10T03:19:06.862Z,100844.13
2022-09-10T03:21:35.786Z,100842.47
2022-09-10T03:24:05.252Z,100844.13
2022-09-10T03:26:33.031Z,100840.50
2022-09-10T03:29:00.729Z,100838.50
2022-09-10T03:31:31.233Z,100844.94
2022-09-10T03:33:59.693Z,100841.63
2022-09-10T03:36:31.238Z,100842.78
2022-09-10T03:39:00.173Z,100848.72
2022-09-10T03:41:31.908Z,100845.91
2022-09-10T03:44:00.188Z,100847.91
2022-09-10T03:46:28.270Z,100850.72
2022-09-10T03:48:59.537Z,100855.78
2022-09-10T03:51:28.878Z,100846.91
2022-09-10T03:53:58.932Z,100850.84
2022-09-10T03:56:29.962Z,100849.84
2022-09-10T03:58:57.972Z,100848.50
2022-09-10T04:01:29.175Z,100845.50
2022-09-10T04:03:57.588Z,100852.59
2022-09-10T04:06:28.126Z,100856.03
2022-09-10T04:08:56.333Z,100865.13
2022-09-10T04:11:27.517Z,100871.41
2022-09-10T04:13:57.853Z,100874.53
2022-09-10T04:16:27.322Z,100880.44
2022-09-10T04:18:55.417Z,100879.94
2022-09-10T04:21:23.180Z,100887.53
2022-09-10T04:23:54.220Z,100889.84
2022-09-10T04:26:22.526Z,100888.69
2022-09-10T04:28:51.147Z,100892.63
2022-09-10T04:31:20.562Z,100890.97
2022-09-10T04:33:48.924Z,100895.25
2022-09-10T04:36:20.551Z,100898.38
2022-09-10T04:38:48.089Z,100903.47
2022-09-10T04:41:19.505Z,100907.47
2022-09-10T04:43:48.206Z,100913.41
2022-09-10T04:46:17.552Z,100920.16
2022-09-10T04:48:47.096Z,100922.44
2022-09-10T04:51:18.991Z,100916.50
2022-09-10T04:53:48.926Z,100926.91
2022-09-10T04:56:16.792Z,100917.34
2022-09-10T04:58:45.185Z,100918.69
2022-09-10T05:01:13.962Z,100918.34
2022-09-10T05:03:43.796Z,100919.69
2022-09-10T05:06:15.131Z,100926.94
2022-09-10T05:08:45.311Z,100929.75
2022-09-10T05:11:13.181Z,100930.91
2022-09-10T05:13:41.576Z,100930.38
2022-09-10T05:16:09.211Z,100929.91
2022-09-10T05:18:36.921Z,100926.59
2022-09-10T05:21:05.263Z,100932.84
2022-09-10T05:23:36.213Z,100928.69
2022-09-10T05:26:03.714Z,100933.78
2022-09-10T05:28:31.308Z,100945.31
2022-09-10T05:30:59.622Z,100941.19
2022-09-10T05:33:29.067Z,100951.56
2022-09-10T05:35:56.941Z,100957.50
2022-09-10T05:38:25.004Z,100949.41
2022-09-10T05:40:54.695Z,100957.50
2022-09-10T05:43:24.381Z,100945.31
2022-09-10T05:45:52.913Z,100954.78
2022-09-10T05:48:21.603Z,100958.28
2022-09-10T05:50:49.960Z,100966.22
2022-09-10T05:53:17.661Z,100960.19
2022-09-10T05:55:45.942Z,100962.53
2022-09-10T05:58:14.840Z,100973.28
2022-09-10T06:00:44.105Z,100971.69
2022-09-10T06:03:12.656Z,100970.91
2022-09-10T06:05:51.218Z,100971.81
2022-09-10T06:08:23.073Z,100969.06
2022-09-10T06:10:56.868Z,100967.25
2022-09-10T06:13:27.845Z,100966.28
2022-09-10T06:15:56.489Z,100972.41
2022-09-10T06:18:26.233Z,100976.22
2022-09-10T06:21:02.129Z,100980.38
2022-09-10T06:23:31.334Z,100978.22
2022-09-10T06:26:04.235Z,100980.88
2022-09-10T06:28:34.771Z,100990.50
2022-09-10T06:31:04.257Z,100987.72
2022-09-10T06:33:33.370Z,100986.94
2022-09-10T06:36:03.325Z,100989.41
2022-09-10T06:38:33.546Z,100986.81
2022-09-10T06:41:04.771Z,100993.13
2022-09-10T06:43:41.490Z,100995.00
2022-09-10T06:46:56.744Z,101005.75
2022-09-10T06:49:15.445Z,101004.91
2022-09-10T06:51:47.385Z,101007.81
2022-09-10T06:54:15.457Z,101011.13
2022-09-10T06:56:43.197Z,101005.31
2022-09-10T06:59:14.513Z,101019.88
2022-09-10T07:01:47.525Z,101026.31
2022-09-10T07:04:15.766Z,101022.28
2022-09-10T07:06:45.870Z,101034.06
2022-09-10T07:09:16.210Z,101036.84
2022-09-10T07:11:53.179Z,101034.28
2022-09-10T07:14:22.012Z,101047.88
2022-09-10T07:16:51.423Z,101040.75
2022-09-10T07:19:20.830Z,101054.31
2022-09-10T07:21:50.089Z,101053.22
2022-09-10T07:24:19.968Z,101056.41
2022-09-10T07:27:07.755Z,101061.47
2022-09-10T07:29:38.095Z,101061.13
2022-09-10T07:32:13.515Z,101062.72
2022-09-10T07:34:41.516Z,101073.31
2022-09-10T07:37:09.113Z,101079.56
2022-09-10T07:39:38.004Z,101072.16
2022-09-10T07:42:06.136Z,101080.66
2022-09-10T07:44:38.449Z,101074.88
2022-09-10T07:47:07.217Z,101071.13
2022-09-10T07:49:34.924Z,101084.94
2022-09-10T07:52:04.749Z,101076.72
2022-09-10T07:54:38.400Z,101085.69
2022-09-10T07:57:06.421Z,101083.34
2022-09-10T07:59:35.456Z,101084.44
2022-09-10T08:02:07.292Z,101083.53
2022-09-10T08:04:37.518Z,101088.94
2022-09-10T08:07:08.922Z,101089.19
2022-09-10T08:09:38.960Z,101092.88
2022-09-10T08:12:08.906Z,101091.19
2022-09-10T08:14:37.997Z,101090.97
2022-09-10T08:17:06.950Z,101098.81
2022-09-10T08:19:39.753Z,101099.25
2022-09-10T08:22:11.491Z,101105.66
2022-09-10T08:24:44.745Z,101110.78
2022-09-10T08:27:13.023Z,101103.25
2022-09-10T08:29:41.724Z,101104.72
2022-09-10T08:32:13.029Z,101105.84
2022-09-10T08:34:40.881Z,101114.09
2022-09-10T08:37:10.441Z,101122.50
2022-09-10T08:39:39.340Z,101128.78
2022-09-10T08:42:13.773Z,101130.81
2022-09-10T08:44:49.014Z,101137.34
2022-09-10T08:47:26.217Z,101141.47
2022-09-10T08:49:58.873Z,101147.81
2022-09-10T08:52:31.042Z,101150.81
2022-09-10T08:55:02.738Z,101155.53
2022-09-10T08:57:34.107Z,101156.78
2022-09-10T09:00:02.356Z,101145.09
2022-09-10T09:02:49.263Z,101164.16
2022-09-10T09:05:20.655Z,101154.09
2022-09-10T09:07:52.352Z,101165.91
2022-09-10T09:10:21.905Z,101165.19
2022-09-10T09:12:55.526Z,101163.44
2022-09-10T09:15:27.656Z,101166.13
2022-09-10T09:18:06.626Z,101169.63
2022-09-10T09:20:41.424Z,101177.81
2022-09-10T09:23:13.564Z,101182.97
2022-09-10T09:25:46.115Z,101185.50
2022-09-10T09:28:17.736Z,101176.47
2022-09-10T09:30:49.618Z,101178.59
2022-09-10T09:33:22.636Z,101184.91
2022-09-10T09:35:53.039Z,101191.59
2022-09-10T09:38:23.735Z,101193.59
2022-09-10T09:40:56.305Z,101202.34
2022-09-10T09:43:29.738Z,101201.69
2022-09-10T09:45:57.308Z,101213.28
2022-09-10T09:48:33.350Z,101209.22
2022-09-10T09:51:01.552Z,101214.56
2022-09-10T09:53:30.897Z,101219.94
2022-09-10T09:55:59.394Z,101216.28
2022-09-10T09:58:34.466Z,101218.28
2022-09-10T10:01:12.954Z,101220.69
2022-09-10T10:03:48.468Z,101224.31
2022-09-10T10:06:17.272Z,101220.94
2022-09-10T10:08:46.184Z,101224.66
2022-09-10T10:11:16.914Z,101223.88
2022-09-10T10:13:45.384Z,101230.03
2022-09-10T10:16:17.390Z,101239.00
2022-09-10T10:18:46.407Z,101232.34
2022-09-10T10:21:15.812Z,101235.88
2022-09-10T10:23:43.755Z,101236.50
2022-09-10T10:26:32.142Z,101241.94
2022-09-10T10:29:01.199Z,101242.50
2022-09-10T10:31:40.179Z,101248.31
2022-09-10T10:34:23.364Z,101254.06
2022-09-10T10:36:56.178Z,101248.81
2022-09-10T10:39:26.966Z,101253.09
2022-09-10T10:42:04.311Z,101251.31
2022-09-10T10:44:49.251Z,101259.16
2022-09-10T10:47:24.710Z,101252.72
2022-09-10T10:49:59.952Z,101256.19
2022-09-10T10:52:33.819Z,101261.84
2022-09-10T10:55:08.069Z,101261.16
2022-09-10T10:57:45.556Z,101269.81
2022-09-10T11:00:15.580Z,101262.31
2022-09-10T11:02:46.013Z,101262.13
2022-09-10T11:05:20.041Z,101255.06
2022-09-10T11:07:47.716Z,101267.03
2022-09-10T11:10:18.902Z,101263.91
2022-09-10T11:12:48.000Z,101260.78
2022-09-10T11:15:20.891Z,101263.34
2022-09-10T11:17:51.853Z,101257.75
2022-09-10T11:20:28.974Z,101266.78
2022-09-10T11:23:01.260Z,101251.25
2022-09-10T11:25:30.685Z,101250.75
2022-09-10T11:28:02.035Z,101265.38
2022-09-10T11:30:29.850Z,101260.94
2022-09-10T11:33:00.300Z,101264.34
2022-09-10T11:35:31.966Z,101269.28
2022-09-10T11:38:07.610Z,101260.25
2022-09-10T11:40:39.138Z,101269.72
2022-09-10T11:43:08.378Z,101269.31
2022-09-10T11:45:46.329Z,101272.09
2022-09-10T11:48:19.166Z,101279.34
2022-09-10T11:50:50.738Z,101284.59
2022-09-10T11:53:20.228Z,101284.97
2022-09-10T11:56:01.236Z,101281.66
2022-09-10T11:58:36.259Z,101275.44
2022-09-10T12:01:08.568Z,101282.75
2022-09-10T12:03:58.186Z,101276.66
2022-09-10T12:06:31.407Z,101284.16
2022-09-10T12:09:04.113Z,101300.16
2022-09-10T12:11:35.469Z,101298.28
2022-09-10T12:14:06.753Z,101292.59
2022-09-10T12:16:36.436Z,101301.22
2022-09-10T12:19:07.027Z,101300.44
2022-09-10T12:21:37.630Z,101305.38
2022-09-10T12:24:07.806Z,101309.38
2022-09-10T12:26:42.297Z,101305.63
2022-09-10T12:29:25.845Z,101308.00
2022-09-10T12:32:17.234Z,101309.56
2022-09-10T12:34:51.015Z,101301.91
2022-09-10T12:37:27.999Z,101303.97
2022-09-10T12:40:19.373Z,101312.41
2022-09-10T12:42:46.983Z,101310.75
2022-09-10T12:45:34.559Z,101321.78
2022-09-10T12:48:12.264Z,101315.88
2022-09-10T12:50:46.107Z,101318.59
2022-09-10T12:53:43.906Z,101317.34
2022-09-10T12:56:34.180Z,101325.81
2022-09-10T12:59:11.390Z,101328.03
2022-09-10T13:01:41.462Z,101320.16
2022-09-10T13:04:21.215Z,101316.47
2022-09-10T13:06:48.998Z,101317.25
2022-09-10T13:09:18.322Z,101318.00
2022-09-10T13:11:49.529Z,101317.06
2022-09-10T13:14:20.572Z,101319.44
2022-09-10T13:16:48.098Z,101319.69
2022-09-10T13:19:34.190Z,101326.47
2022-09-10T13:22:03.521Z,101322.28
2022-09-10T13:24:38.689Z,101328.91
2022-09-10T13:27:20.129Z,101320.63
2022-09-10T13:29:49.228Z,101325.91
2022-09-10T13:32:22.723Z,101325.34
2022-09-10T13:35:01.309Z,101328.09
2022-09-10T13:37:41.714Z,101325.50
2022-09-10T13:40:22.993Z,101334.81
2022-09-10T13:43:01.770Z,101335.63
2022-09-10T13:45:34.053Z,101342.91
2022-09-10T13:48:02.810Z,101333.84
2022-09-10T13:50:33.696Z,101338.59
2022-09-10T13:53:03.679Z,101344.97
2022-09-10T13:55:32.683Z,101347.59
2022-09-10T13:58:02.350Z,101349.06
2022-09-10T14:00:33.514Z,101352.53
2022-09-10T14:03:01.659Z,101353.09
2022-09-10T14:05:34.994Z,101353.66
2022-09-10T14:08:05.251Z,101355.97
2022-09-10T14:10:33.639Z,101355.06
2022-09-10T14:13:03.036Z,101354.47
2022-09-10T14:15:33.602Z,101364.41
2022-09-10T14:18:01.184Z,101368.31
2022-09-10T14:20:29.849Z,101364.03
2022-09-10T14:22:59.703Z,101366.25
2022-09-10T14:25:32.207Z,101379.97
2022-09-10T14:28:26.793Z,101375.75
2022-09-10T14:31:09.221Z,101384.44
2022-09-10T14:33:39.608Z,101383.34
2022-09-10T14:36:14.586Z,101381.78
2022-09-10T14:38:42.505Z,101389.22
2022-09-10T14:41:18.599Z,101387.88
2022-09-10T14:43:46.443Z,101392.16
2022-09-10T14:46:34.543Z,101392.16
2022-09-10T14:49:04.556Z,101396.09
2022-09-10T14:51:32.114Z,101392.44
2022-09-10T14:53:59.966Z,101387.22
2022-09-10T14:56:31.342Z,101388.13
2022-09-10T14:59:00.357Z,101391.63
2022-09-10T15:01:28.609Z,101387.84
2022-09-10T15:03:56.451Z,101388.56
2022-09-10T15:06:26.578Z,101394.44
2022-09-10T15:08:56.050Z,101399.41
2022-09-10T15:11:26.061Z,101394.91
2022-09-10T15:13:55.764Z,101397.31
2022-09-10T15:16:23.994Z,101397.22
2022-09-10T15:18:51.566Z,101399.41
2022-09-10T15:21:19.186Z,101404.81
2022-09-10T15:23:48.286Z,101407.50
2022-09-10T15:26:16.086Z,101409.31
2022-09-10T15:28:43.559Z,101418.13
2022-09-10T15:31:11.112Z,101412.34
2022-09-10T15:33:39.964Z,101406.28
2022-09-10T15:36:08.244Z,101415.38
2022-09-10T15:38:36.023Z,101411.81
2022-09-10T15:41:08.843Z,101420.06
2022-09-10T15:43:37.836Z,101421.34
2022-09-10T15:46:05.574Z,101420.50
2022-09-10T15:48:33.505Z,101421.25
2022-09-10T15:51:02.854Z,101432.28
2022-09-10T15:53:33.467Z,101418.88
2022-09-10T15:56:02.236Z,101426.13
2022-09-10T15:58:31.462Z,101423.28
2022-09-10T16:01:02.865Z,101423.28
2022-09-10T16:03:30.439Z,101427.03
2022-09-10T16:06:02.220Z,101429.22
2022-09-10T16:08:29.772Z,101428.03
2022-09-10T16:10:57.600Z,101430.44
2022-09-10T16:13:25.877Z,101432.06
2022-09-10T16:16:02.619Z,101443.91
2022-09-10T16:18:31.005Z,101443.47
2022-09-10T16:21:06.301Z,101440.16
2022-09-10T16:23:34.593Z,101436.84
2022-09-10T16:26:02.388Z,101442.00
2022-09-10T16:28:30.364Z,101449.25
2022-09-10T16:30:58.408Z,101451.91
2022-09-10T16:33:27.397Z,101455.38
2022-09-10T16:35:54.858Z,101460.06
2022-09-10T16:38:22.366Z,101467.19
2022-09-10T16:40:59.870Z,101463.50
2022-09-10T16:43:27.372Z,101463.41
2022-09-10T16:45:54.921Z,101464.88
2022-09-10T16:48:22.478Z,101467.41
2022-09-10T16:50:51.372Z,101468.28
2022-09-10T16:53:18.901Z,101476.34
2022-09-10T16:55:46.409Z,101475.94
2022-09-10T16:58:14.647Z,101479.66
2022-09-10T17:00:44.419Z,101476.13
2022-09-10T17:03:12.025Z,101478.28
2022-09-10T17:05:39.586Z,101488.09
2022-09-10T17:08:08.426Z,101493.16
2022-09-10T17:10:35.903Z,101498.97
2022-09-10T17:13:03.483Z,101494.09
2022-09-10T17:15:30.970Z,101491.75
2022-09-10T17:17:58.486Z,101504.03
2022-09-10T17:20:26.038Z,101498.81
2022-09-10T17:22:53.563Z,101499.75
2022-09-10T17:25:22.509Z,101491.34
2022-09-10T17:27:50.073Z,101497.13
2022-09-10T17:30:17.568Z,101502.38
2022-09-10T17:32:45.113Z,101508.59
2022-09-10T17:35:13.358Z,101509.16
2022-09-10T17:37:41.125Z,101512.09
2022-09-10T17:40:09.148Z,101514.31
2022-09-10T17:42:38.001Z,101517.22
2022-09-10T17:45:06.042Z,101523.13
2022-09-10T17:47:34.224Z,101522.84
2022-09-10T17:50:01.801Z,101532.22
2022-09-10T17:52:29.290Z,101523.47
2022-09-10T17:54:57.714Z,101530.84
2022-09-10T17:57:25.238Z,101534.59
2022-09-10T17:59:54.328Z,101530.28
2022-09-10T18:02:21.899Z,101538.78
2022-09-10T18:04:49.718Z,101545.84
2022-09-10T18:07:17.413Z,101554.03
2022-09-10T18:09:44.912Z,101548.91
2022-09-10T18:12:14.532Z,101556.28
2022-09-10T18:14:42.102Z,101561.28
2022-09-10T18:17:10.984Z,101569.47
2022-09-10T18:19:38.486Z,101573.66
2022-09-10T18:22:07.729Z,101576.66
2022-09-10T18:24:35.246Z,101574.03
2022-09-10T18:27:04.612Z,101577.03
2022-09-10T18:29:32.325Z,101580.88
2022-09-10T18:32:01.706Z,101593.19
2022-09-10T18:34:31.237Z,101588.88
2022-09-10T18:36:59.912Z,101598.38
2022-09-10T18:39:28.414Z,101605.00
2022-09-10T18:41:57.145Z,101605.19
2022-09-10T18:44:25.534Z,101607.84
2022-09-10T18:46:53.751Z,101609.66
2022-09-10T18:49:23.364Z,101614.69
2022-09-10T18:51:52.926Z,101616.19
2022-09-10T18:54:20.768Z,101616.00
2022-09-10T18:56:49.378Z,101621.50
2022-09-10T18:59:20.038Z,101630.94
2022-09-10T19:01:48.048Z,101634.75
2022-09-10T19:04:17.044Z,101635.78
2022-09-10T19:06:46.747Z,101634.78
2022-09-10T19:09:16.470Z,101634.94
2022-09-10T19:11:48.004Z,101639.56
2022-09-10T19:14:17.912Z,101642.25
2022-09-10T19:16:46.703Z,101647.22
2022-09-10T19:19:18.406Z,101651.03
2022-09-10T19:21:46.440Z,101650.84
2022-09-10T19:24:15.329Z,101646.53
2022-09-10T19:26:43.309Z,101652.00
2022-09-10T19:29:12.647Z,101659.78
2022-09-10T19:31:40.786Z,101672.88
2022-09-10T19:34:09.244Z,101672.16
2022-09-10T19:36:36.915Z,101674.00
2022-09-10T19:39:05.292Z,101674.13
2022-09-10T19:41:35.322Z,101671.47
2022-09-10T19:44:03.809Z,101670.44
2022-09-10T19:46:31.396Z,101672.59
2022-09-10T19:49:00.014Z,101673.25
2022-09-10T19:51:28.717Z,101675.38
2022-09-10T19:53:56.415Z,101670.69
2022-09-10T19:56:25.132Z,101677.31
2022-09-10T19:58:56.074Z,101679.44
2022-09-10T20:01:25.192Z,101679.25
2022-09-10T20:03:53.535Z,101684.19
2022-09-10T20:06:22.406Z,101689.63
2022-09-10T20:08:50.701Z,101691.47
2022-09-10T20:11:19.379Z,101691.25
2022-09-10T20:13:46.913Z,101691.91
2022-09-10T20:16:16.900Z,101686.06
2022-09-10T20:18:45.397Z,101689.84
2022-09-10T20:21:14.696Z,101691.34
2022-09-10T20:23:43.265Z,101693.97
2022-09-10T20:26:15.830Z,101693.44
2022-09-10T20:28:43.670Z,101693.25
2022-09-10T20:31:12.274Z,101698.06
2022-09-10T20:33:42.272Z,101693.06
2022-09-10T20:36:11.551Z,101696.19
2022-09-10T20:38:39.469Z,101695.97
2022-09-10T20:41:07.475Z,101700.28
2022-09-10T20:43:35.470Z,101703.09
2022-09-10T20:46:03.231Z,101705.41
2022-09-10T20:48:31.818Z,101708.53
2022-09-10T20:51:01.377Z,101706.88
2022-09-10T20:53:29.019Z,101712.81
2022-09-10T20:56:03.801Z,101706.34
2022-09-10T20:58:32.445Z,101712.31
2022-09-10T21:01:05.286Z,101718.44
2022-09-10T21:03:32.820Z,101718.78
2022-09-10T21:06:01.925Z,101731.69
2022-09-10T21:08:31.222Z,101729.22
2022-09-10T21:11:02.373Z,101733.16
2022-09-10T21:13:29.866Z,101731.50
2022-09-10T21:16:05.013Z,101733.81
2022-09-10T21:18:32.832Z,101735.78
2022-09-10T21:21:08.080Z,101742.56
2022-09-10T21:23:36.655Z,101741.41
2022-09-10T21:26:05.067Z,101749.03
2022-09-10T21:28:32.613Z,101745.91
2022-09-10T21:31:03.860Z,101753.22
2022-09-10T21:33:31.478Z,101752.91
2022-09-10T21:36:02.508Z,101756.75
2022-09-10T21:38:31.491Z,101754.75
2022-09-10T21:40:59.457Z,101756.13
2022-09-10T21:43:27.056Z,101765.09
2022-09-10T21:45:54.578Z,101759.47
2022-09-10T21:48:22.315Z,101766.72
2022-09-10T21:50:49.946Z,101760.28
2022-09-10T21:53:18.495Z,101765.09
2022-09-10T21:55:47.383Z,101768.22
2022-09-10T21:58:15.878Z,101769.06
2022-09-10T22:00:43.585Z,101769.06
2022-09-10T22:03:11.084Z,101766.56
2022-09-10T22:05:39.210Z,101766.88
2022-09-10T22:08:09.535Z,101773.97
2022-09-10T22:10:40.275Z,101771.78
2022-09-10T22:13:09.440Z,101766.78
2022-09-10T22:15:39.211Z,101775.03
2022-09-10T22:18:08.217Z,101774.84
2022-09-10T22:20:36.106Z,101772.66
2022-09-10T22:23:04.067Z,101774.94
2022-09-10T22:25:33.142Z,101781.22
2022-09-10T22:28:00.659Z,101777.88
2022-09-10T22:30:29.490Z,101779.34
2022-09-10T22:32:57.347Z,101779.13
2022-09-10T22:35:25.506Z,101791.84
2022-09-10T22:37:54.836Z,101792.81
2022-09-10T22:40:23.122Z,101796.25
2022-09-10T22:42:50.615Z,101794.91
2022-09-10T22:45:21.052Z,101789.56
2022-09-10T22:47:49.993Z,101790.41
2022-09-10T22:50:17.677Z,101802.50
2022-09-10T22:52:45.808Z,101808.13
2022-09-10T22:55:14.347Z,101808.13
2022-09-10T22:57:41.924Z,101814.91
2022-09-10T23:00:11.301Z,101815.22
2022-09-10T23:02:39.255Z,101813.56
2022-09-10T23:05:08.438Z,101827.09
2022-09-10T23:07:36.384Z,101820.66
2022-09-10T23:10:03.988Z,101816.69
2022-09-10T23:12:31.499Z,101822.31
2022-09-10T23:14:59.101Z,101828.78
2022-09-10T23:17:26.598Z,101828.78
2022-09-10T23:19:56.242Z,101824.81
2022-09-10T23:22:25.042Z,101820.88
2022-09-10T23:24:52.591Z,101824.81
2022-09-10T23:27:20.045Z,101830.44
2022-09-10T23:29:47.543Z,101839.22
2022-09-10T23:32:15.132Z,101833.06
2022-09-10T23:34:42.668Z,101833.38
2022-09-10T23:37:10.228Z,101832.88
2022-09-10T23:39:39.451Z,101841.09
2022-09-10T23:42:07.132Z,101835.25
2022-09-10T23:44:35.063Z,101834.19
2022-09-10T23:47:02.789Z,101836.47
2022-09-10T23:49:30.289Z,101843.03
2022-09-10T23:51:57.819Z,101848.16
2022-09-10T23:54:25.259Z,101853.59
2022-09-10T23:56:54.230Z,101860.66
2022-09-10T23:59:21.795Z,101864.63
